createdAt,value
2022-07-28T00:00:13.835Z,11.50
2022-07-28T00:03:02.408Z,10.20
2022-07-28T00:05:31.559Z,7.60
2022-07-28T00:08:00.679Z,9.20
2022-07-28T00:10:29.574Z,11.80
2022-07-28T00:12:57.983Z,8.50
2022-07-28T00:15:27.577Z,7.10
2022-07-28T00:20:23.546Z,8.60
2022-07-28T00:22:52.200Z,8.90
2022-07-28T00:25:20.641Z,11.00
2022-07-28T00:27:49.979Z,11.90
2022-07-28T00:30:17.854Z,9.00
2022-07-28T00:32:46.787Z,8.40
2022-07-28T00:37:59.658Z,7.90
2022-07-28T00:40:48.561Z,9.20
2022-07-28T00:43:17.164Z,7.50
2022-07-28T00:45:45.235Z,8.80
2022-07-28T00:48:13.535Z,10.30
2022-07-28T00:50:43.366Z,7.40
2022-07-28T00:53:12.018Z,8.40
2022-07-28T00:56:05.299Z,6.50
2022-07-28T00:58:29.928Z,7.60
2022-07-28T01:01:02.007Z,8.60
2022-07-28T01:03:32.403Z,9.30
2022-07-28T01:06:28.242Z,6.10
2022-07-28T01:09:03.331Z,10.90
2022-07-28T01:11:43.160Z,8.00
2022-07-28T01:14:23.914Z,8.50
2022-07-28T01:17:15.560Z,10.20
2022-07-28T01:20:16.627Z,6.30
2022-07-28T01:23:13.576Z,8.40
2022-07-28T01:26:03.252Z,9.20
2022-07-28T01:28:55.150Z,7.60
2022-07-28T01:31:26.554Z,7.60
2022-07-28T01:34:04.780Z,8.90
2022-07-28T01:36:40.548Z,8.40
2022-07-28T01:39:10.926Z,7.00
2022-07-28T01:41:41.916Z,8.50
2022-07-28T01:44:16.420Z,8.70
2022-07-28T01:46:46.851Z,8.60
2022-07-28T01:49:18.942Z,11.90
2022-07-28T01:51:48.295Z,6.80
2022-07-28T01:54:19.380Z,7.80
2022-07-28T01:56:49.899Z,8.30
2022-07-28T01:59:19.553Z,9.70
2022-07-28T02:01:51.598Z,11.70
2022-07-28T02:04:23.875Z,8.60
2022-07-28T02:07:15.630Z,8.90
2022-07-28T02:09:45.807Z,10.40
2022-07-28T02:12:18.659Z,8.60
2022-07-28T02:14:50.240Z,7.10
2022-07-28T02:17:21.822Z,9.50
2022-07-28T02:19:52.694Z,8.40
2022-07-28T02:22:21.764Z,10.60
2022-07-28T02:24:53.643Z,9.60
2022-07-28T02:27:38.892Z,12.30
2022-07-28T02:30:17.019Z,10.40
2022-07-28T02:32:50.134Z,10.70
2022-07-28T02:35:32.334Z,10.40
2022-07-28T02:38:06.451Z,9.60
2022-07-28T02:40:38.407Z,8.10
2022-07-28T02:43:14.554Z,11.70
2022-07-28T02:45:46.517Z,10.20
2022-07-28T02:48:17.800Z,8.40
2022-07-28T02:50:47.882Z,6.40
2022-07-28T02:53:17.277Z,7.80
2022-07-28T02:55:47.927Z,8.90
2022-07-28T02:58:24.041Z,9.70
2022-07-28T03:00:54.173Z,11.40
2022-07-28T03:03:24.486Z,10.20
2022-07-28T03:05:52.552Z,10.40
2022-07-28T03:08:21.022Z,10.70
2022-07-28T03:10:50.059Z,7.80
2022-07-28T03:13:18.100Z,7.70
2022-07-28T03:15:45.882Z,10.70
2022-07-28T03:18:13.854Z,9.80
2022-07-28T03:20:41.631Z,7.40
2022-07-28T03:23:12.906Z,8.60
2022-07-28T03:25:48.722Z,10.90
2022-07-28T03:28:20.262Z,11.20
2022-07-28T03:31:00.297Z,8.70
2022-07-28T03:33:28.943Z,7.80
2022-07-28T03:35:59.674Z,7.90
2022-07-28T03:38:38.135Z,8.20
2022-07-28T03:41:11.480Z,11.70
2022-07-28T03:43:40.311Z,7.10
2022-07-28T03:46:13.149Z,9.70
2022-07-28T03:48:42.828Z,8.10
2022-07-28T03:51:12.255Z,9.40
2022-07-28T03:53:41.954Z,9.00
2022-07-28T03:56:10.181Z,11.60
2022-07-28T03:58:38.468Z,7.60
2022-07-28T04:01:06.428Z,8.70
2022-07-28T04:03:42.795Z,10.10
2022-07-28T04:06:13.296Z,8.10
2022-07-28T04:08:42.120Z,8.90
2022-07-28T04:11:10.171Z,9.70
2022-07-28T04:13:38.812Z,9.10
2022-07-28T04:16:07.716Z,8.00
2022-07-28T04:18:35.752Z,8.40
2022-07-28T04:21:04.841Z,9.50
2022-07-28T04:23:32.822Z,7.70
2022-07-28T04:26:00.826Z,9.80
2022-07-28T04:28:28.835Z,8.50
2022-07-28T04:30:57.187Z,8.80
2022-07-28T04:33:25.366Z,10.30
2022-07-28T04:35:54.517Z,7.60
2022-07-28T04:38:22.451Z,9.20
2022-07-28T04:40:51.256Z,8.70
2022-07-28T04:43:19.567Z,8.40
2022-07-28T04:45:54.049Z,9.90
2022-07-28T04:48:24.158Z,9.10
2022-07-28T04:50:53.465Z,12.90
2022-07-28T04:53:22.837Z,12.80
2022-07-28T04:55:53.636Z,14.00
2022-07-28T04:58:24.073Z,12.70
2022-07-28T05:00:52.696Z,8.00
2022-07-28T05:03:21.191Z,10.20
2022-07-28T05:05:54.100Z,10.60
2022-07-28T05:08:26.164Z,11.70
2022-07-28T05:10:57.999Z,10.70
2022-07-28T05:13:30.400Z,9.10
2022-07-28T05:16:03.839Z,9.20
2022-07-28T05:18:32.230Z,9.50
2022-07-28T05:21:01.215Z,8.60
2022-07-28T05:23:29.723Z,9.20
2022-07-28T05:25:58.154Z,10.60
2022-07-28T05:28:26.970Z,14.10
2022-07-28T05:30:54.726Z,10.60
2022-07-28T05:33:24.542Z,7.50
2022-07-28T05:36:00.216Z,8.40
2022-07-28T05:38:30.366Z,8.10
2022-07-28T05:40:59.556Z,9.20
2022-07-28T05:43:28.007Z,6.50
2022-07-28T05:45:56.774Z,8.40
2022-07-28T05:48:25.236Z,7.10
2022-07-28T05:50:54.921Z,4.70
2022-07-28T05:53:24.081Z,8.30
2022-07-28T05:56:00.015Z,7.70
2022-07-28T05:58:31.170Z,7.10
2022-07-28T06:01:03.345Z,9.10
2022-07-28T06:03:35.058Z,7.50
2022-07-28T06:06:15.652Z,7.10
2022-07-28T06:08:48.558Z,6.50
2022-07-28T06:11:21.869Z,7.40
2022-07-28T06:13:52.781Z,6.40
2022-07-28T06:16:22.667Z,7.30
2022-07-28T06:18:50.959Z,6.90
2022-07-28T06:21:19.346Z,7.00
2022-07-28T06:23:47.188Z,7.30
2022-07-28T06:26:14.991Z,8.90
2022-07-28T06:28:44.021Z,9.80
2022-07-28T06:31:12.318Z,6.20
2022-07-28T06:33:41.267Z,4.90
2022-07-28T06:36:10.470Z,5.90
2022-07-28T06:38:38.608Z,5.70
2022-07-28T06:41:06.457Z,5.00
2022-07-28T06:43:38.738Z,5.20
2022-07-28T06:46:07.496Z,6.20
2022-07-28T06:48:37.943Z,5.60
2022-07-28T06:51:06.856Z,5.00
2022-07-28T06:53:34.941Z,5.10
2022-07-28T06:56:07.577Z,7.10
2022-07-28T06:58:41.422Z,7.20
2022-07-28T07:01:12.789Z,5.20
2022-07-28T07:03:41.602Z,5.10
2022-07-28T07:06:11.030Z,6.20
2022-07-28T07:08:39.399Z,4.50
2022-07-28T07:11:07.564Z,4.50
2022-07-28T07:13:35.412Z,5.00
2022-07-28T07:16:03.761Z,5.50
2022-07-28T07:18:31.533Z,3.20
2022-07-28T07:21:00.347Z,5.20
2022-07-28T07:23:28.330Z,4.50
2022-07-28T07:25:56.176Z,5.30
2022-07-28T07:28:23.979Z,4.70
2022-07-28T07:30:52.194Z,3.00
2022-07-28T07:33:20.169Z,4.90
2022-07-28T07:35:48.847Z,5.40
2022-07-28T07:38:17.206Z,4.40
2022-07-28T07:40:45.257Z,9.10
2022-07-28T07:43:13.626Z,6.20
2022-07-28T07:45:42.998Z,5.30
2022-07-28T07:48:12.452Z,5.90
2022-07-28T07:50:40.733Z,3.90
2022-07-28T07:53:08.921Z,5.90
2022-07-28T07:55:37.750Z,4.60
2022-07-28T08:00:35.425Z,6.50
2022-07-28T08:03:04.541Z,9.70
2022-07-28T08:05:39.990Z,5.50
2022-07-28T08:08:08.781Z,5.50
2022-07-28T08:10:39.294Z,7.30
2022-07-28T08:13:08.298Z,4.90
2022-07-28T08:15:36.553Z,6.80
2022-07-28T08:18:04.393Z,5.20
2022-07-28T08:20:32.884Z,4.30
2022-07-28T08:23:00.841Z,4.80
2022-07-28T08:25:29.370Z,6.20
2022-07-28T08:27:57.354Z,4.40
2022-07-28T08:30:30.296Z,5.00
2022-07-28T08:33:01.175Z,6.20
2022-07-28T08:35:33.415Z,5.40
2022-07-28T08:38:06.379Z,5.10
2022-07-28T08:40:36.495Z,5.60
2022-07-28T08:43:33.799Z,6.90
2022-07-28T08:46:04.838Z,5.80
2022-07-28T08:48:35.347Z,5.30
2022-07-28T08:51:10.227Z,5.40
2022-07-28T08:53:40.321Z,5.40
2022-07-28T08:56:10.407Z,6.40
2022-07-28T08:58:38.435Z,6.40
2022-07-28T09:01:08.924Z,5.90
2022-07-28T09:03:40.905Z,5.10
2022-07-28T09:06:10.587Z,7.60
2022-07-28T09:08:41.151Z,5.10
2022-07-28T09:11:11.940Z,4.10
2022-07-28T09:13:42.125Z,6.00
2022-07-28T09:16:12.907Z,5.90
2022-07-28T09:18:41.594Z,5.60
2022-07-28T09:21:13.380Z,7.20
2022-07-28T09:23:46.565Z,5.00
2022-07-28T09:26:16.052Z,4.80
2022-07-28T09:28:49.973Z,7.90
2022-07-28T09:31:19.653Z,6.90
2022-07-28T09:33:55.615Z,5.80
2022-07-28T09:36:24.604Z,5.60
2022-07-28T09:38:54.579Z,6.40
2022-07-28T09:41:22.828Z,5.90
2022-07-28T09:43:54.809Z,5.80
2022-07-28T09:46:25.877Z,8.80
2022-07-28T09:49:01.307Z,6.40
2022-07-28T09:51:31.591Z,4.80
2022-07-28T09:54:09.134Z,8.00
2022-07-28T09:56:39.538Z,5.00
2022-07-28T09:59:09.124Z,7.20
2022-07-28T10:02:00.828Z,8.80
2022-07-28T10:04:38.763Z,5.90
2022-07-28T10:07:20.018Z,5.20
2022-07-28T10:10:05.585Z,7.60
2022-07-28T10:12:35.712Z,5.10
2022-07-28T10:15:31.928Z,9.10
2022-07-28T10:18:00.501Z,9.40
2022-07-28T10:20:29.738Z,4.60
2022-07-28T10:23:05.437Z,4.90
2022-07-28T10:25:34.591Z,4.30
2022-07-28T10:28:03.966Z,11.60
2022-07-28T10:30:37.639Z,3.90
2022-07-28T10:33:13.913Z,7.70
2022-07-28T10:35:52.541Z,8.70
2022-07-28T10:38:28.081Z,5.00
2022-07-28T10:41:00.812Z,5.00
2022-07-28T10:43:30.970Z,4.80
2022-07-28T10:46:09.770Z,4.90
2022-07-28T10:48:40.496Z,5.20
2022-07-28T10:51:12.227Z,8.00
2022-07-28T10:53:51.141Z,3.40
2022-07-28T10:56:25.836Z,5.40
2022-07-28T10:59:02.786Z,6.90
2022-07-28T11:01:49.794Z,6.20
2022-07-28T11:04:49.238Z,7.10
2022-07-28T11:07:19.397Z,4.10
2022-07-28T11:09:47.928Z,5.10
2022-07-28T11:12:16.754Z,4.60
2022-07-28T11:14:45.976Z,6.30
2022-07-28T11:17:23.753Z,5.80
2022-07-28T11:20:16.963Z,6.70
2022-07-28T11:22:43.315Z,5.50
2022-07-28T11:25:18.888Z,7.80
2022-07-28T11:27:51.684Z,4.70
2022-07-28T11:30:29.206Z,5.00
2022-07-28T11:32:58.708Z,4.00
2022-07-28T11:35:50.628Z,5.80
2022-07-28T11:38:19.305Z,7.80
2022-07-28T11:40:49.606Z,6.20
2022-07-28T11:43:35.743Z,7.10
2022-07-28T11:46:10.275Z,5.00
2022-07-28T11:48:45.255Z,5.00
2022-07-28T11:51:14.176Z,5.40
2022-07-28T11:53:48.257Z,5.50
2022-07-28T11:56:23.935Z,6.60
2022-07-28T11:59:04.652Z,6.40
2022-07-28T12:01:38.414Z,4.10
2022-07-28T12:04:16.269Z,5.80
2022-07-28T12:06:49.440Z,3.70
2022-07-28T12:09:42.012Z,8.20
2022-07-28T12:12:13.976Z,6.60
2022-07-28T12:14:46.450Z,6.20
2022-07-28T12:17:15.503Z,3.50
2022-07-28T12:19:46.769Z,4.70
2022-07-28T12:28:41.196Z,5.50
2022-07-28T12:31:44.858Z,7.50
2022-07-28T12:34:48.299Z,6.00
2022-07-28T12:37:19.199Z,6.70
2022-07-28T12:39:51.390Z,4.10
2022-07-28T12:42:20.221Z,6.90
2022-07-28T12:44:54.433Z,5.30
2022-07-28T12:47:34.589Z,5.00
2022-07-28T12:50:17.415Z,7.70
2022-07-28T12:53:08.729Z,7.50
2022-07-28T12:56:27.615Z,5.60
2022-07-28T12:59:22.674Z,5.70
2022-07-28T13:09:14.858Z,5.70
2022-07-28T13:11:54.219Z,6.90
2022-07-28T13:14:55.782Z,5.30
2022-07-28T13:17:54.304Z,6.20
2022-07-28T13:20:24.425Z,9.20
2022-07-28T13:22:54.578Z,8.60
2022-07-28T13:25:48.545Z,6.50
2022-07-28T13:28:49.959Z,6.60
2022-07-28T13:31:37.563Z,4.10
2022-07-28T13:34:13.605Z,5.50
2022-07-28T13:36:46.542Z,6.20
2022-07-28T13:39:14.960Z,6.80
2022-07-28T13:41:56.632Z,6.20
2022-07-28T13:44:28.165Z,5.00
2022-07-28T13:46:56.577Z,4.80
2022-07-28T13:49:32.815Z,5.70
2022-07-28T13:52:13.120Z,8.30
2022-07-28T13:54:47.847Z,8.70
2022-07-28T13:57:32.082Z,5.80
2022-07-28T14:01:17.943Z,3.50
2022-07-28T14:04:31.810Z,5.40
2022-07-28T14:07:14.003Z,5.30
2022-07-28T14:10:13.690Z,5.40
2022-07-28T14:13:31.777Z,5.20
2022-07-28T14:16:16.334Z,5.00
2022-07-28T14:18:44.257Z,6.90
2022-07-28T14:21:21.372Z,4.40
2022-07-28T14:23:49.388Z,5.60
2022-07-28T14:26:35.159Z,8.20
2022-07-28T14:29:15.575Z,4.60
2022-07-28T14:32:14.123Z,5.40
2022-07-28T14:35:17.157Z,4.70
2022-07-28T14:38:42.449Z,7.50
2022-07-28T14:41:15.333Z,6.60
2022-07-28T14:43:52.955Z,4.30
2022-07-28T14:46:22.081Z,5.10
2022-07-28T14:49:03.942Z,7.20
2022-07-28T14:51:32.820Z,3.80
2022-07-28T14:54:55.154Z,4.80
2022-07-28T14:57:45.877Z,5.10
2022-07-28T15:00:36.292Z,3.80
2022-07-28T15:03:54.962Z,6.70
2022-07-28T15:06:51.690Z,4.20
2022-07-28T15:09:50.714Z,5.80
2022-07-28T15:12:59.046Z,3.40
2022-07-28T15:16:20.881Z,3.90
2022-07-28T15:19:16.552Z,5.70
2022-07-28T15:21:56.058Z,6.60
2022-07-28T15:25:15.851Z,2.90
2022-07-28T15:28:19.558Z,2.90
2022-07-28T15:31:01.582Z,4.40
2022-07-28T15:33:30.489Z,3.70
2022-07-28T15:36:00.915Z,2.70
2022-07-28T15:38:29.140Z,3.20
2022-07-28T15:40:59.017Z,3.20
2022-07-28T15:43:32.918Z,2.20
2022-07-28T15:46:04.267Z,4.40
2022-07-28T15:48:32.370Z,3.70
2022-07-28T15:51:02.427Z,4.60
2022-07-28T15:53:30.624Z,2.80
2022-07-28T15:55:58.747Z,2.30
2022-07-28T15:58:26.668Z,3.00
2022-07-28T16:00:55.073Z,4.00
2022-07-28T16:03:24.476Z,2.50
2022-07-28T16:05:54.142Z,3.30
2022-07-28T16:08:23.072Z,3.20
2022-07-28T16:10:54.202Z,4.80
2022-07-28T16:13:33.411Z,3.50
2022-07-28T16:16:14.000Z,2.90
2022-07-28T16:18:42.996Z,4.40
2022-07-28T16:21:11.523Z,4.80
2022-07-28T16:23:39.385Z,3.80
2022-07-28T16:26:09.643Z,3.90
2022-07-28T16:28:39.435Z,3.40
2022-07-28T16:31:07.518Z,4.20
2022-07-28T16:33:35.519Z,2.50
2022-07-28T16:36:05.997Z,4.50
2022-07-28T16:38:37.280Z,4.60
2022-07-28T16:41:08.622Z,2.80
2022-07-28T16:43:41.783Z,2.40
2022-07-28T16:46:12.751Z,3.30
2022-07-28T16:48:40.744Z,3.60
2022-07-28T16:51:09.573Z,2.50
2022-07-28T16:53:43.205Z,3.60
2022-07-28T16:56:16.043Z,4.60
2022-07-28T16:58:47.624Z,3.10
2022-07-28T17:01:16.548Z,3.50
2022-07-28T17:03:48.343Z,4.50
2022-07-28T17:06:18.690Z,3.30
2022-07-28T17:08:46.372Z,5.30
2022-07-28T17:11:14.570Z,5.90
2022-07-28T17:13:45.388Z,2.80
2022-07-28T17:16:16.604Z,3.70
2022-07-28T17:18:44.774Z,3.50
2022-07-28T17:21:13.274Z,4.30
2022-07-28T17:23:41.143Z,5.30
2022-07-28T17:27:26.510Z,5.50
2022-07-28T17:28:57.243Z,2.90
2022-07-28T17:31:25.606Z,2.90
2022-07-28T17:33:54.882Z,5.30
2022-07-28T17:36:22.565Z,5.70
2022-07-28T17:38:51.138Z,4.00
2022-07-28T17:41:18.922Z,2.80
2022-07-28T17:43:46.583Z,3.60
2022-07-28T17:46:15.007Z,3.30
2022-07-28T17:48:43.279Z,6.40
2022-07-28T17:51:11.024Z,3.10
2022-07-28T17:53:39.816Z,4.50
2022-07-28T17:56:10.300Z,3.80
2022-07-28T18:01:12.589Z,3.80
2022-07-28T18:03:58.866Z,4.60
2022-07-28T18:06:35.073Z,4.80
2022-07-28T18:09:07.934Z,4.80
2022-07-28T18:11:57.022Z,5.10
2022-07-28T18:14:28.457Z,6.90
2022-07-28T18:16:57.351Z,5.00
2022-07-28T18:19:26.242Z,6.70
2022-07-28T18:21:54.215Z,7.00
2022-07-28T18:26:53.849Z,6.00
2022-07-28T18:29:22.077Z,6.50
2022-07-28T18:31:53.751Z,7.30
2022-07-28T18:34:23.544Z,6.40
2022-07-28T18:36:54.156Z,9.10
2022-07-28T18:39:22.551Z,8.80
2022-07-28T18:44:20.442Z,4.80
2022-07-28T18:46:49.094Z,5.80
2022-07-28T18:49:16.933Z,4.00
2022-07-28T18:51:46.023Z,3.60
2022-07-28T18:54:27.628Z,6.20
2022-07-28T18:56:56.577Z,4.80
2022-07-28T18:59:24.653Z,4.30
2022-07-28T19:01:52.714Z,6.40
2022-07-28T19:04:21.179Z,5.80
2022-07-28T19:06:51.608Z,7.10
2022-07-28T19:09:22.370Z,8.00
2022-07-28T19:11:50.137Z,6.90
2022-07-28T19:14:18.859Z,4.40
2022-07-28T19:16:47.329Z,9.40
2022-07-28T19:19:15.476Z,4.70
2022-07-28T19:21:44.025Z,6.30
2022-07-28T19:24:14.215Z,5.80
2022-07-28T19:26:44.499Z,10.40
2022-07-28T19:29:13.094Z,2.90
2022-07-28T19:31:41.563Z,4.50
2022-07-28T19:34:10.456Z,4.20
2022-07-28T19:36:41.539Z,5.10
2022-07-28T19:39:09.755Z,7.40
2022-07-28T19:41:37.910Z,5.70
2022-07-28T19:44:07.015Z,7.10
2022-07-28T19:46:35.015Z,4.80
2022-07-28T19:49:04.284Z,8.90
2022-07-28T19:51:32.391Z,6.70
2022-07-28T19:54:01.355Z,7.80
2022-07-28T19:56:31.584Z,9.20
2022-07-28T19:59:00.515Z,9.70
2022-07-28T20:04:03.731Z,11.80
2022-07-28T20:06:34.763Z,10.30
2022-07-28T20:09:04.291Z,6.50
2022-07-28T20:11:33.107Z,9.00
2022-07-28T20:14:01.178Z,7.00
2022-07-28T20:16:29.502Z,10.70
2022-07-28T20:18:58.665Z,6.80
2022-07-28T20:21:27.086Z,9.10
2022-07-28T20:23:57.034Z,7.50
2022-07-28T20:26:27.237Z,8.00
2022-07-28T20:28:59.630Z,8.60
2022-07-28T20:31:28.591Z,5.10
2022-07-28T20:33:57.198Z,11.90
2022-07-28T20:36:29.674Z,6.40
2022-07-28T20:38:58.450Z,6.70
2022-07-28T20:41:26.544Z,3.60
2022-07-28T20:44:26.358Z,7.90
2022-07-28T20:46:44.501Z,6.80
2022-07-28T20:51:40.199Z,6.80
2022-07-28T20:54:20.091Z,6.20
2022-07-28T20:59:16.262Z,7.90
2022-07-28T21:01:45.147Z,6.20
2022-07-28T21:11:48.862Z,3.30
2022-07-28T21:14:17.724Z,5.40
2022-07-28T21:16:46.190Z,6.60
2022-07-28T21:19:14.413Z,6.00
2022-07-28T21:21:42.548Z,3.90
2022-07-28T21:24:11.833Z,4.50
2022-07-28T21:26:42.243Z,5.80
2022-07-28T21:32:04.502Z,8.10
2022-07-28T21:34:35.165Z,5.80
2022-07-28T21:37:05.120Z,5.70
2022-07-28T21:39:34.317Z,6.70
2022-07-28T21:42:06.972Z,6.60
2022-07-28T21:44:39.664Z,5.60
2022-07-28T21:47:08.622Z,6.80
2022-07-28T21:52:05.101Z,6.30
2022-07-28T21:54:33.120Z,7.50
2022-07-28T21:57:01.424Z,7.90
2022-07-28T21:59:29.776Z,6.10
2022-07-28T22:01:58.017Z,7.70
2022-07-28T22:04:26.034Z,7.90
2022-07-28T22:06:55.023Z,6.30
2022-07-28T22:09:22.980Z,5.10
2022-07-28T22:11:51.247Z,6.60
2022-07-28T22:14:20.345Z,6.40
2022-07-28T22:16:49.081Z,7.40
2022-07-28T22:19:18.916Z,6.80
2022-07-28T22:21:47.996Z,4.70
2022-07-28T22:24:16.435Z,5.10
2022-07-28T22:26:44.743Z,6.40
2022-07-28T22:29:13.573Z,7.50
2022-07-28T22:31:41.977Z,8.50
2022-07-28T22:34:10.038Z,4.80
2022-07-28T22:36:39.175Z,5.80
2022-07-28T22:39:08.025Z,5.00
2022-07-28T22:41:36.531Z,5.40
2022-07-28T22:44:06.403Z,6.20
2022-07-28T22:46:34.367Z,5.60
2022-07-28T22:49:03.191Z,5.60
2022-07-28T22:51:31.819Z,5.60
2022-07-28T22:54:00.491Z,4.30
2022-07-28T22:59:05.664Z,6.20
2022-07-28T23:01:37.561Z,3.60
2022-07-28T23:04:07.614Z,3.50
2022-07-28T23:06:35.664Z,5.70
2022-07-28T23:09:05.230Z,5.50
2022-07-28T23:11:33.741Z,5.40
2022-07-28T23:14:01.555Z,6.40
2022-07-28T23:16:29.958Z,7.00
2022-07-28T23:18:59.009Z,5.50
2022-07-28T23:21:26.868Z,5.30
2022-07-28T23:23:55.910Z,5.70
2022-07-28T23:26:25.299Z,6.60
2022-07-28T23:28:53.509Z,5.20
2022-07-28T23:31:21.412Z,6.50
2022-07-28T23:33:56.372Z,4.40
2022-07-28T23:36:27.552Z,5.40
2022-07-28T23:38:57.584Z,5.60
2022-07-28T23:41:26.969Z,6.30
2022-07-28T23:43:55.316Z,5.30
2022-07-28T23:46:23.777Z,5.30
2022-07-28T23:48:51.959Z,3.70
2022-07-28T23:51:21.249Z,6.50
2022-07-28T23:53:55.919Z,6.80
2022-07-28T23:56:24.256Z,3.90
2022-07-28T23:58:53.721Z,5.90
